createdAt,value
2022-09-23T00:02:16.976Z,101952.34
2022-09-23T00:04:43.490Z,101953.25
2022-09-23T00:07:10.109Z,101956.81
2022-09-23T00:09:36.577Z,101945.53
2022-09-23T00:12:08.117Z,101947.31
2022-09-23T00:14:37.133Z,101953.41
2022-09-23T00:17:03.674Z,101942.22
2022-09-23T00:19:30.229Z,101938.75
2022-09-23T00:21:56.760Z,101937.09
2022-09-23T00:24:23.819Z,101932.81
2022-09-23T00:26:50.976Z,101938.97
2022-09-23T00:29:17.420Z,101934.69
2022-09-23T00:31:43.876Z,101932.19
2022-09-23T00:34:11.451Z,101927.16
2022-09-23T00:36:38.622Z,101929.78
2022-09-23T00:39:05.200Z,101931.63
2022-09-23T00:41:32.802Z,101927.38
2022-09-23T00:44:00.780Z,101920.47
2022-09-23T00:46:35.567Z,101913.63
2022-09-23T00:49:25.044Z,101924.19
2022-09-23T00:51:57.540Z,101916.50
2022-09-23T00:54:27.478Z,101915.63
2022-09-23T00:56:56.292Z,101912.22
2022-09-23T00:59:24.405Z,101909.66
2022-09-23T01:01:54.778Z,101908.16
2022-09-23T01:04:24.520Z,101907.41
2022-09-23T01:06:50.968Z,101901.41
2022-09-23T01:09:18.405Z,101902.34
2022-09-23T01:11:57.044Z,101908.53
2022-09-23T01:14:36.934Z,101908.63
2022-09-23T01:17:27.476Z,101908.72
2022-09-23T01:20:03.519Z,101911.44
2022-09-23T01:22:42.025Z,101905.38
2022-09-23T01:25:40.886Z,101903.81
2022-09-23T01:28:41.229Z,101896.94
2022-09-23T01:31:32.021Z,101900.53
2022-09-23T01:34:10.813Z,101899.75
2022-09-23T01:36:46.613Z,101895.44
2022-09-23T01:39:24.478Z,101887.69
2022-09-23T01:41:53.840Z,101885.97
2022-09-23T01:44:29.457Z,101886.03
2022-09-23T01:47:11.033Z,101880.97
2022-09-23T01:50:03.386Z,101882.78
2022-09-23T01:52:40.422Z,101884.59
2022-09-23T01:55:18.962Z,101881.16
2022-09-23T01:57:53.418Z,101883.78
2022-09-23T02:00:23.535Z,101888.97
2022-09-23T02:02:57.668Z,101875.97
2022-09-23T02:05:36.886Z,101874.31
2022-09-23T02:08:21.964Z,101870.94
2022-09-23T02:10:56.118Z,101884.81
2022-09-23T02:13:32.607Z,101879.63
2022-09-23T02:16:06.399Z,101871.03
2022-09-23T02:18:47.906Z,101871.06
2022-09-23T02:21:16.768Z,101871.13
2022-09-23T02:23:50.458Z,101865.94
2022-09-23T02:26:22.186Z,101861.66
2022-09-23T02:29:08.089Z,101854.72
2022-09-23T02:31:53.702Z,101852.22
2022-09-23T02:34:34.844Z,101843.66
2022-09-23T02:37:10.256Z,101842.00
2022-09-23T02:40:02.028Z,101846.44
2022-09-23T02:42:47.267Z,101834.44
2022-09-23T02:45:13.886Z,101837.16
2022-09-23T02:47:44.125Z,101838.16
2022-09-23T02:50:10.905Z,101837.34
2022-09-23T02:52:38.724Z,101836.53
2022-09-23T02:55:08.846Z,101826.19
2022-09-23T02:57:35.638Z,101826.22
2022-09-23T03:00:02.406Z,101824.59
2022-09-23T03:02:35.094Z,101825.53
2022-09-23T03:05:19.034Z,101828.25
2022-09-23T03:08:12.676Z,101822.22
2022-09-23T03:11:05.764Z,101824.06
2022-09-23T03:13:51.109Z,101820.63
2022-09-23T03:16:36.144Z,101817.25
2022-09-23T03:19:19.295Z,101814.75
2022-09-23T03:21:56.334Z,101817.38
2022-09-23T03:24:24.927Z,101811.34
2022-09-23T03:26:53.884Z,101813.09
2022-09-23T03:29:22.723Z,101814.88
2022-09-23T03:31:49.288Z,101816.59
2022-09-23T03:34:24.922Z,101808.81
2022-09-23T03:37:01.519Z,101812.25
2022-09-23T03:39:40.274Z,101811.41
2022-09-23T03:42:21.519Z,101812.25
2022-09-23T03:44:52.835Z,101805.31
2022-09-23T03:47:20.699Z,101805.31
2022-09-23T03:49:49.626Z,101800.19
2022-09-23T03:52:21.126Z,101803.63
2022-09-23T03:54:48.237Z,101794.94
2022-09-23T03:57:15.123Z,101788.06
2022-09-23T03:59:41.825Z,101790.66
2022-09-23T04:02:08.598Z,101794.06
2022-09-23T04:04:40.181Z,101782.72
2022-09-23T04:07:06.862Z,101781.84
2022-09-23T04:09:33.455Z,101774.97
2022-09-23T04:11:59.900Z,101781.84
2022-09-23T04:14:26.580Z,101779.31
2022-09-23T04:16:53.199Z,101780.16
2022-09-23T04:19:19.680Z,101780.16
2022-09-23T04:21:46.602Z,101781.91
2022-09-23T04:24:13.695Z,101787.09
2022-09-23T04:26:40.722Z,101789.75
2022-09-23T04:29:07.955Z,101790.66
2022-09-23T04:31:34.919Z,101779.34
2022-09-23T04:34:01.374Z,101774.16
2022-09-23T04:36:29.181Z,101783.66
2022-09-23T04:38:56.669Z,101775.03
2022-09-23T04:41:23.094Z,101769.75
2022-09-23T04:43:49.528Z,101765.41
2022-09-23T04:46:16.770Z,101774.03
2022-09-23T04:48:43.627Z,101768.75
2022-09-23T04:51:13.374Z,101775.69
2022-09-23T04:53:42.191Z,101769.56
2022-09-23T04:56:14.328Z,101772.91
2022-09-23T04:58:41.746Z,101773.72
2022-09-23T05:01:25.284Z,101770.22
2022-09-23T05:03:54.024Z,101771.00
2022-09-23T05:06:21.344Z,101770.97
2022-09-23T05:08:54.161Z,101770.06
2022-09-23T05:11:21.496Z,101766.63
2022-09-23T05:13:49.479Z,101761.38
2022-09-23T05:16:16.508Z,101766.44
2022-09-23T05:18:45.103Z,101770.78
2022-09-23T05:21:18.277Z,101765.50
2022-09-23T05:23:49.918Z,101762.88
2022-09-23T05:26:16.598Z,101767.16
2022-09-23T05:28:43.202Z,101769.69
2022-09-23T05:31:19.566Z,101765.31
2022-09-23T05:33:51.945Z,101768.75
2022-09-23T05:36:20.483Z,101772.25
2022-09-23T05:38:48.580Z,101773.09
2022-09-23T05:41:16.242Z,101776.53
2022-09-23T05:43:42.962Z,101774.78
2022-09-23T05:46:14.854Z,101771.31
2022-09-23T05:48:42.392Z,101772.16
2022-09-23T05:51:17.196Z,101773.91
2022-09-23T05:53:45.538Z,101771.25
2022-09-23T05:56:17.693Z,101778.09
2022-09-23T05:58:44.809Z,101771.13
2022-09-23T06:01:21.536Z,101774.50
2022-09-23T06:03:49.164Z,101777.91
2022-09-23T06:06:18.104Z,101776.03
2022-09-23T06:08:48.044Z,101777.69
2022-09-23T06:11:14.829Z,101774.13
2022-09-23T06:13:41.644Z,101780.94
2022-09-23T06:16:10.927Z,101768.72
2022-09-23T06:18:44.793Z,101768.69
2022-09-23T06:21:16.345Z,101770.25
2022-09-23T06:23:43.549Z,101770.19
2022-09-23T06:26:12.682Z,101771.91
2022-09-23T06:28:40.930Z,101765.72
2022-09-23T06:31:15.272Z,101764.78
2022-09-23T06:33:46.071Z,101762.00
2022-09-23T06:36:19.431Z,101762.81
2022-09-23T06:38:57.286Z,101757.41
2022-09-23T06:41:23.736Z,101765.88
2022-09-23T06:43:50.150Z,101762.19
2022-09-23T06:46:17.166Z,101758.53
2022-09-23T06:48:46.298Z,101760.03
2022-09-23T06:51:19.190Z,101764.16
2022-09-23T06:53:47.123Z,101769.09
2022-09-23T06:56:14.143Z,101766.28
2022-09-23T06:58:40.717Z,101775.50
2022-09-23T07:01:09.582Z,101766.63
2022-09-23T07:03:37.023Z,101763.72
2022-09-23T07:06:04.670Z,101764.28
2022-09-23T07:08:33.741Z,101767.50
2022-09-23T07:11:03.619Z,101765.56
2022-09-23T07:13:33.414Z,101763.50
2022-09-23T07:16:02.042Z,101752.75
2022-09-23T07:18:36.788Z,101765.50
2022-09-23T07:21:15.665Z,101758.28
2022-09-23T07:23:47.131Z,101759.72
2022-09-23T07:26:14.837Z,101762.13
2022-09-23T07:28:41.388Z,101754.03
2022-09-23T07:31:14.108Z,101750.16
2022-09-23T07:33:43.706Z,101752.53
2022-09-23T07:36:12.929Z,101756.56
2022-09-23T07:38:44.290Z,101755.38
2022-09-23T07:41:14.356Z,101757.59
2022-09-23T07:43:41.165Z,101755.56
2022-09-23T07:46:11.058Z,101758.69
2022-09-23T07:48:38.596Z,101755.75
2022-09-23T07:51:11.405Z,101757.19
2022-09-23T07:53:38.016Z,101762.00
2022-09-23T07:56:06.480Z,101758.91
2022-09-23T07:58:34.914Z,101766.19
2022-09-23T08:01:04.261Z,101762.94
2022-09-23T08:03:30.752Z,101762.53
2022-09-23T08:06:08.295Z,101771.72
2022-09-23T08:08:35.662Z,101762.44
2022-09-23T08:11:08.136Z,101760.91
2022-09-23T08:13:34.539Z,101769.03
2022-09-23T08:16:01.268Z,101763.34
2022-09-23T08:18:28.015Z,101761.28
2022-09-23T08:20:54.860Z,101755.66
2022-09-23T08:23:21.532Z,101757.00
2022-09-23T08:25:48.250Z,101764.19
2022-09-23T08:28:19.154Z,101754.91
2022-09-23T08:30:48.837Z,101756.94
2022-09-23T08:33:19.677Z,101759.16
2022-09-23T08:35:49.341Z,101755.34
2022-09-23T08:38:16.062Z,101753.19
2022-09-23T08:40:45.302Z,101753.63
2022-09-23T08:43:22.455Z,101759.22
2022-09-23T08:45:51.141Z,101756.88
2022-09-23T08:48:27.637Z,101757.81
2022-09-23T08:51:11.202Z,101755.38
2022-09-23T08:53:38.379Z,101754.63
2022-09-23T08:56:19.844Z,101754.94
2022-09-23T08:59:23.086Z,101758.13
2022-09-23T09:01:54.501Z,101763.31
2022-09-23T09:04:23.809Z,101763.16
2022-09-23T09:10:06.547Z,101758.47
2022-09-23T09:12:45.247Z,101760.13
2022-09-23T09:15:26.618Z,101752.16
2022-09-23T09:18:07.766Z,101752.91
2022-09-23T09:20:57.073Z,101749.13
2022-09-23T09:23:36.603Z,101742.56
2022-09-23T09:26:04.437Z,101740.53
2022-09-23T09:29:06.577Z,101749.06
2022-09-23T09:31:44.839Z,101746.06
2022-09-23T09:34:35.132Z,101750.97
2022-09-23T09:37:07.244Z,101741.97
2022-09-23T09:39:35.372Z,101731.31
2022-09-23T09:42:02.804Z,101732.75
2022-09-23T09:44:54.170Z,101738.66
2022-09-23T09:47:28.630Z,101729.84
2022-09-23T09:50:13.993Z,101731.16
2022-09-23T09:52:43.051Z,101731.44
2022-09-23T09:55:12.608Z,101731.00
2022-09-23T09:57:44.159Z,101735.41
2022-09-23T10:00:25.733Z,101733.34
2022-09-23T10:02:53.771Z,101723.78
2022-09-23T10:05:46.746Z,101721.53
2022-09-23T10:08:32.396Z,101719.38
2022-09-23T10:10:58.852Z,101713.72
2022-09-23T10:13:26.491Z,101715.97
2022-09-23T10:15:54.983Z,101710.41
2022-09-23T10:18:37.420Z,101708.31
2022-09-23T10:21:16.071Z,101706.88
2022-09-23T10:23:45.602Z,101698.22
2022-09-23T10:26:13.978Z,101697.31
2022-09-23T10:28:53.469Z,101697.63
2022-09-23T10:31:34.584Z,101691.00
2022-09-23T10:34:04.093Z,101692.50
2022-09-23T10:36:32.638Z,101691.44
2022-09-23T10:39:20.860Z,101690.22
2022-09-23T10:42:23.490Z,101690.78
2022-09-23T10:45:34.307Z,101688.97
2022-09-23T10:48:15.742Z,101687.81
2022-09-23T10:50:48.945Z,101692.25
2022-09-23T10:53:22.863Z,101698.22
2022-09-23T10:55:58.234Z,101699.72
2022-09-23T10:58:50.416Z,101697.19
2022-09-23T11:01:31.105Z,101698.16
2022-09-23T11:04:26.141Z,101696.34
2022-09-23T11:07:22.832Z,101692.97
2022-09-23T11:10:23.202Z,101700.56
2022-09-23T11:13:05.529Z,101690.75
2022-09-23T11:15:56.720Z,101684.56
2022-09-23T11:18:50.825Z,101685.19
2022-09-23T11:21:39.637Z,101683.41
2022-09-23T11:24:24.848Z,101683.19
2022-09-23T11:27:15.932Z,101688.34
2022-09-23T11:30:01.403Z,101683.84
2022-09-23T11:35:45.327Z,101684.53
2022-09-23T11:38:19.088Z,101687.41
2022-09-23T11:40:54.754Z,101676.56
2022-09-23T11:43:28.602Z,101679.81
2022-09-23T11:45:56.481Z,101677.47
2022-09-23T11:48:42.097Z,101676.09
2022-09-23T11:51:14.585Z,101669.47
2022-09-23T11:53:57.433Z,101666.28
2022-09-23T11:56:35.756Z,101665.53
2022-09-23T11:59:24.397Z,101667.59
2022-09-23T12:02:20.395Z,101661.56
2022-09-23T12:04:58.553Z,101660.59
2022-09-23T12:07:44.224Z,101658.84
2022-09-23T12:10:12.233Z,101649.97
2022-09-23T12:12:52.995Z,101646.19
2022-09-23T12:15:26.776Z,101648.81
2022-09-23T12:18:26.607Z,101653.47
2022-09-23T12:21:04.054Z,101644.47
2022-09-23T12:23:36.429Z,101644.47
2022-09-23T12:26:12.614Z,101646.19
2022-09-23T12:28:45.073Z,101648.59
2022-09-23T12:31:15.564Z,101638.66
2022-09-23T12:33:50.675Z,101634.44
2022-09-23T12:36:26.604Z,101628.56
2022-09-23T12:39:01.987Z,101633.69
2022-09-23T12:41:38.070Z,101624.94
2022-09-23T12:44:12.154Z,101622.53
2022-09-23T12:46:48.406Z,101626.75
2022-09-23T12:49:35.657Z,101627.09
2022-09-23T12:52:28.110Z,101623.59
2022-09-23T12:55:18.385Z,101619.59
2022-09-23T12:57:44.969Z,101625.69
2022-09-23T13:00:12.845Z,101620.41
2022-09-23T13:03:12.224Z,101616.59
2022-09-23T13:06:11.782Z,101619.47
2022-09-23T13:08:40.865Z,101619.03
2022-09-23T13:11:28.379Z,101611.09
2022-09-23T13:13:59.694Z,101618.06
2022-09-23T13:16:35.147Z,101611.56
2022-09-23T13:19:04.769Z,101612.44
2022-09-23T13:21:43.160Z,101606.19
2022-09-23T13:24:12.623Z,101603.88
2022-09-23T13:26:48.756Z,101598.13
2022-09-23T13:29:29.851Z,101603.16
2022-09-23T13:32:00.323Z,101597.38
2022-09-23T13:34:32.832Z,101599.19
2022-09-23T13:37:22.196Z,101596.91
2022-09-23T13:39:49.386Z,101599.31
2022-09-23T13:42:27.080Z,101592.94
2022-09-23T13:44:57.483Z,101593.69
2022-09-23T13:47:26.789Z,101593.47
2022-09-23T13:49:53.743Z,101581.47
2022-09-23T13:52:29.912Z,101582.09
2022-09-23T13:54:56.357Z,101579.22
2022-09-23T13:57:34.917Z,101588.00
2022-09-23T14:00:21.309Z,101581.91
2022-09-23T14:02:47.863Z,101583.94
2022-09-23T14:05:26.276Z,101579.91
2022-09-23T14:07:54.810Z,101577.38
2022-09-23T14:10:24.432Z,101579.06
2022-09-23T14:12:52.964Z,101574.75
2022-09-23T14:15:20.986Z,101566.81
2022-09-23T14:17:56.064Z,101567.06
2022-09-23T14:20:23.473Z,101567.78
2022-09-23T14:23:20.484Z,101564.06
2022-09-23T14:25:47.500Z,101557.09
2022-09-23T14:28:19.771Z,101555.66
2022-09-23T14:30:48.062Z,101559.97
2022-09-23T14:33:18.833Z,101556.50
2022-09-23T14:35:49.266Z,101547.63
2022-09-23T14:38:45.001Z,101551.59
2022-09-23T14:41:19.736Z,101548.94
2022-09-23T14:43:57.321Z,101546.19
2022-09-23T14:46:26.080Z,101542.00
2022-09-23T14:49:17.757Z,101542.09
2022-09-23T14:51:47.865Z,101545.81
2022-09-23T14:54:33.902Z,101539.31
2022-09-23T14:57:01.798Z,101544.81
2022-09-23T14:59:37.558Z,101538.81
2022-09-23T15:02:37.572Z,101538.91
2022-09-23T15:05:30.797Z,101530.75
2022-09-23T15:08:01.457Z,101529.19
2022-09-23T15:10:31.824Z,101527.63
2022-09-23T15:13:07.089Z,101531.22
2022-09-23T15:15:33.811Z,101530.84
2022-09-23T15:18:05.901Z,101527.97
2022-09-23T15:20:33.372Z,101525.78
2022-09-23T15:23:00.170Z,101522.31
2022-09-23T15:25:32.589Z,101527.81
2022-09-23T15:28:06.421Z,101521.78
2022-09-23T15:30:36.292Z,101530.81
2022-09-23T15:33:02.850Z,101518.78
2022-09-23T15:35:32.087Z,101519.88
2022-09-23T15:38:01.772Z,101523.56
2022-09-23T15:40:33.812Z,101527.13
2022-09-23T15:43:07.522Z,101528.00
2022-09-23T15:45:40.263Z,101525.38
2022-09-23T15:48:12.312Z,101524.50
2022-09-23T15:50:41.191Z,101519.50
2022-09-23T15:53:09.734Z,101518.75
2022-09-23T15:55:36.194Z,101514.63
2022-09-23T15:58:02.633Z,101514.84
2022-09-23T16:00:29.160Z,101516.88
2022-09-23T16:02:55.656Z,101513.63
2022-09-23T16:05:27.330Z,101522.59
2022-09-23T16:07:53.836Z,101521.03
2022-09-23T16:10:22.005Z,101522.31
2022-09-23T16:12:49.111Z,101523.28
2022-09-23T16:15:20.267Z,101515.94
2022-09-23T16:17:46.666Z,101512.69
2022-09-23T16:20:18.063Z,101517.94
2022-09-23T16:22:54.137Z,101520.69
2022-09-23T16:25:23.481Z,101517.34
2022-09-23T16:27:50.215Z,101520.41
2022-09-23T16:30:16.811Z,101514.63
2022-09-23T16:32:43.329Z,101527.06
2022-09-23T16:35:09.800Z,101518.78
2022-09-23T16:37:36.279Z,101522.69
2022-09-23T16:40:04.489Z,101518.81
2022-09-23T16:42:30.970Z,101518.41
2022-09-23T16:44:57.404Z,101522.09
2022-09-23T16:47:23.832Z,101523.25
2022-09-23T16:49:50.226Z,101533.16
2022-09-23T16:52:16.945Z,101529.16
2022-09-23T16:54:43.690Z,101524.22
2022-09-23T16:57:10.390Z,101525.03
2022-09-23T16:59:55.173Z,101526.13
2022-09-23T17:02:40.097Z,101522.84
2022-09-23T17:05:06.877Z,101529.25
2022-09-23T17:07:33.297Z,101521.38
2022-09-23T17:10:00.096Z,101526.84
2022-09-23T17:12:35.192Z,101528.13
2022-09-23T17:15:06.211Z,101531.38
2022-09-23T17:17:37.492Z,101530.84
2022-09-23T17:20:06.126Z,101523.16
2022-09-23T17:22:33.977Z,101525.06
2022-09-23T17:25:03.643Z,101527.69
2022-09-23T17:27:31.801Z,101526.94
2022-09-23T17:29:58.977Z,101532.41
2022-09-23T17:32:26.148Z,101518.63
2022-09-23T17:34:52.617Z,101523.03
2022-09-23T17:37:19.623Z,101522.63
2022-09-23T17:39:46.315Z,101516.63
2022-09-23T17:42:13.285Z,101518.31
2022-09-23T17:44:39.677Z,101514.94
2022-09-23T17:47:06.227Z,101505.38
2022-09-23T17:49:35.386Z,101511.47
2022-09-23T17:52:05.442Z,101501.78
2022-09-23T17:54:32.436Z,101497.56
2022-09-23T17:56:59.955Z,101498.84
2022-09-23T17:59:26.738Z,101500.09
2022-09-23T18:01:54.156Z,101498.69
2022-09-23T18:04:21.103Z,101498.81
2022-09-23T18:06:47.723Z,101493.75
2022-09-23T18:09:14.747Z,101495.56
2022-09-23T18:11:44.099Z,101493.88
2022-09-23T18:14:19.978Z,101497.97
2022-09-23T18:16:48.803Z,101504.06
2022-09-23T18:19:17.661Z,101501.56
2022-09-23T18:21:47.111Z,101497.34
2022-09-23T18:27:01.145Z,101507.50
2022-09-23T18:29:27.655Z,101511.72
2022-09-23T18:31:54.406Z,101513.31
2022-09-23T18:34:21.878Z,101501.84
2022-09-23T18:36:48.368Z,101512.56
2022-09-23T18:39:14.896Z,101510.03
2022-09-23T18:41:41.450Z,101506.59
2022-09-23T18:44:08.436Z,101510.13
2022-09-23T18:46:35.213Z,101506.66
2022-09-23T18:49:20.277Z,101504.34
2022-09-23T18:51:55.676Z,101506.34
2022-09-23T18:54:24.147Z,101503.88
2022-09-23T18:56:52.683Z,101502.41
2022-09-23T18:59:21.308Z,101509.63
2022-09-23T19:01:50.118Z,101514.03
2022-09-23T19:04:18.873Z,101514.97
2022-09-23T19:06:45.906Z,101516.66
2022-09-23T19:09:12.813Z,101514.13
2022-09-23T19:11:39.400Z,101513.19
2022-09-23T19:14:10.775Z,101510.56
2022-09-23T19:16:37.887Z,101511.59
2022-09-23T19:19:05.527Z,101514.22
2022-09-23T19:21:32.945Z,101513.59
2022-09-23T19:24:05.373Z,101510.97
2022-09-23T19:26:35.263Z,101507.59
2022-09-23T19:29:05.045Z,101504.22
2022-09-23T19:31:34.395Z,101510.63
2022-09-23T19:34:04.542Z,101508.00
2022-09-23T19:36:37.646Z,101511.47
2022-09-23T19:39:12.188Z,101509.78
2022-09-23T19:41:38.588Z,101509.97
2022-09-23T19:44:07.381Z,101506.41
2022-09-23T19:46:37.152Z,101509.88
2022-09-23T19:49:05.823Z,101504.63
2022-09-23T19:51:35.631Z,101500.50
2022-09-23T19:54:03.947Z,101502.50
2022-09-23T19:56:32.297Z,101494.63
2022-09-23T19:58:59.917Z,101500.91
2022-09-23T20:01:27.754Z,101501.84
2022-09-23T20:03:54.444Z,101505.31
2022-09-23T20:06:21.748Z,101500.91
2022-09-23T20:08:49.210Z,101500.06
2022-09-23T20:11:26.070Z,101493.97
2022-09-23T20:14:01.226Z,101491.34
2022-09-23T20:16:31.957Z,101488.72
2022-09-23T20:18:59.874Z,101487.97
2022-09-23T20:21:28.149Z,101484.63
2022-09-23T20:23:54.831Z,101487.13
2022-09-23T20:26:39.907Z,101488.16
2022-09-23T20:29:06.457Z,101484.81
2022-09-23T20:31:34.544Z,101490.06
2022-09-23T20:34:05.376Z,101477.66
2022-09-23T20:36:33.160Z,101482.91
2022-09-23T20:39:01.633Z,101479.44
2022-09-23T20:41:29.783Z,101480.50
2022-09-23T20:44:00.282Z,101475.44
2022-09-23T20:46:28.553Z,101472.91
2022-09-23T20:48:56.620Z,101473.75
2022-09-23T20:51:24.730Z,101465.22
2022-09-23T20:53:52.835Z,101467.13
2022-09-23T20:56:22.886Z,101461.97
2022-09-23T20:58:50.727Z,101459.44
2022-09-23T21:01:18.239Z,101464.06
2022-09-23T21:03:47.091Z,101464.13
2022-09-23T21:06:16.233Z,101467.59
2022-09-23T21:08:44.439Z,101460.78
2022-09-23T21:11:13.327Z,101459.91
2022-09-23T21:13:39.805Z,101452.91
2022-09-23T21:16:09.934Z,101453.94
2022-09-23T21:18:37.361Z,101447.00
2022-09-23T21:21:05.292Z,101448.03
2022-09-23T21:23:35.737Z,101446.16
2022-09-23T21:26:11.009Z,101448.78
2022-09-23T21:28:48.652Z,101452.34
2022-09-23T21:31:25.581Z,101455.06
2022-09-23T21:33:59.141Z,101448.31
2022-09-23T21:36:27.461Z,101452.84
2022-09-23T21:38:55.477Z,101444.13
2022-09-23T21:41:22.163Z,101453.78
2022-09-23T21:43:49.759Z,101442.41
2022-09-23T21:46:20.991Z,101445.03
2022-09-23T21:48:52.884Z,101441.78
2022-09-23T21:51:25.752Z,101452.47
2022-09-23T21:53:54.676Z,101445.34
2022-09-23T21:56:29.719Z,101449.09
2022-09-23T21:58:57.885Z,101445.84
2022-09-23T22:01:26.928Z,101452.88
2022-09-23T22:03:59.401Z,101450.25
2022-09-23T22:06:27.742Z,101445.84
2022-09-23T22:08:59.016Z,101451.28
2022-09-23T22:11:49.653Z,101446.22
2022-09-23T22:14:17.892Z,101441.69
2022-09-23T22:16:44.637Z,101445.25
2022-09-23T22:19:13.629Z,101440.97
2022-09-23T22:21:42.517Z,101448.91
2022-09-23T22:24:10.329Z,101440.41
2022-09-23T22:26:39.695Z,101442.19
2022-09-23T22:29:26.848Z,101443.00
2022-09-23T22:32:12.259Z,101437.78
2022-09-23T22:34:55.392Z,101432.63
2022-09-23T22:37:28.171Z,101433.78
2022-09-23T22:39:54.885Z,101431.88
2022-09-23T22:42:22.345Z,101427.69
2022-09-23T22:44:49.450Z,101434.50
2022-09-23T22:47:17.871Z,101432.63
2022-09-23T22:49:44.502Z,101431.81
2022-09-23T22:52:11.409Z,101427.41
2022-09-23T22:54:38.573Z,101430.31
2022-09-23T22:57:06.130Z,101428.53
2022-09-23T22:59:33.152Z,101424.00
2022-09-23T23:02:00.478Z,101430.09
2022-09-23T23:04:27.983Z,101425.59
2022-09-23T23:06:54.416Z,101423.19
2022-09-23T23:09:20.837Z,101418.88
2022-09-23T23:11:47.611Z,101424.13
2022-09-23T23:14:17.141Z,101421.50
2022-09-23T23:16:46.026Z,101414.59
2022-09-23T23:19:16.972Z,101423.47
2022-09-23T23:21:44.976Z,101419.91
2022-09-23T23:24:17.407Z,101413.00
2022-09-23T23:26:44.970Z,101416.63
2022-09-23T23:29:13.643Z,101420.44
2022-09-23T23:31:40.613Z,101415.19
2022-09-23T23:34:11.549Z,101417.72
2022-09-23T23:36:38.483Z,101406.31
2022-09-23T23:39:05.442Z,101405.53
2022-09-23T23:41:31.879Z,101400.41
2022-09-23T23:43:59.979Z,101411.72
2022-09-23T23:46:28.571Z,101407.31
2022-09-23T23:48:56.558Z,101403.88
2022-09-23T23:51:26.481Z,101405.84
2022-09-23T23:53:54.563Z,101405.09
2022-09-23T23:56:23.254Z,101404.16
2022-09-23T23:58:57.719Z,101400.69
